Nashville, MI (49073)

11:24 PM EST on March 03, 2015 (GMT -0500)
APRSWXNET Woodland MI US | Change Station
CLOSE
Current Station
Personal Weather Station
Location: Woodland, MI
Elevation: 885 ft
Nearby Weather Stations

Elev 885 ft 42.75 °N, 85.11 °W | Updated 22 minutes ago

Overcast
Overcast
29 °F
Feels Like 19 °F
N
13
Wind Variable Wind from WNW
Gusts 21.0 mph

Today
High -- | Low -- °F
--% Chance of Precip.
Yesterday
High -- | Low -- °F
Precip. -- in
7:13 AM 6:32 PM
Waxing Gibbous, 98% visible
Pressure 29.76 in
Visibility 10.0 miles
Clouds Mostly Cloudy 2300 ft
Windchill 19 °F
Dew Point 25 °F
Humidity 85%
Rainfall 0.00 in
Snow Depth Not available.
UV 0 out of 12
Pollen .30 out of 12
Air Quality Not available.
Flu Activity Not available.
METAR KFPK 040415Z AUTO 29013KT 10SM BKN023 M01/M04 A2976 RMK AO2 T10101043

More Conditions Fewer Conditions

Pressure 29.76 in
Visibility 10.0 miles
Clouds Mostly Cloudy 2300 ft
Windchill 19 °F
Dew Point 25 °F
Humidity 85%
Rainfall 0.00 in
Snow Depth Not available.
UV 0 out of 12
Pollen .30 out of 12
Air Quality Not available.
Flu Activity Not available.
METAR KFPK 040415Z AUTO 29013KT 10SM BKN023 M01/M04 A2976 RMK AO2 T10101043

More Conditions Fewer Conditions

10-Day Weather Forecast

Almanac

Astronomy

Mar. 03, 2015 Rise Set
Actual Time
Civil Twilight
Nautical Twilight
Astronomical Twilight
Moon
Length of Visible Light
Length of Day
Tomorrow will be .
, % of the Moon is Illuminated

Today's Extremes

State Highs State Lows

Community

WunderPhotos

Upload Photos

1,802,383 photos uploaded!

WunderBlogs® & News

Nearby

Air Quality

  Air Quality AQ Index Pollutant
Not available.

Snow Depth

Station Depth Elevation

Earthquake Activity

City Distance Mag. Time & Date
Minimum magnitude displayed is 2.5.

Coastal Water Temperatures

Place Temperature

Nearby Weather Stations